South Yankton, Nebraska
Current Conditions -  °F | °C
As of 2:35 AM on Friday 24 Oct 2014 (Local Time) from KYKN Reporting Station
Clear Clear  
Wind Chill: 59°   Ceiling: Unl
Heat Index: 59°   Visibility: 10mi
Dew Point: 54°   Wind: 10mph
Humidity: 82%   Direction: 190°S
Pressure: 29.87"   Gusts: NA
Location:  42.8189°N, 97.344°W
Report Text: KYKN 240735Z AUTO 19009KT 10SM CLR 15/12 A2987 RMK AO1
Loading
Personal Weather Stations






























Interactive Weather Map
Tropical Storm Tracking
New forecast layout! Learn more

10-Day Weather Forecast

Advertisements
Track Severe Weather on mobile